Kezdőlap
METAR-TAF:

METAR-TAF

Repülőterek :

Dzsidda, Szaúd-Arábia

földrajzi szélesség: 21-42N, földrajzi hosszúság: 039-11E, magasság: 15 m

Jelenlegi meteorológiai megfigyelések

A jelentés 45 perccel ezelõtt készült, 13:00 UTC
Nyugat-délnyugati szél 11 kt
Hőmérséklet 34°C
Páratartalom 63%
Légköri nyomás 1007 hPa
Látótávolság 10 km, vagy több
felhőtlen 1500 m magasságban, és nincs gomolyfelhõ

METAR: OEJN 231300Z 24011KT CAVOK 34/26 Q1007 NOSIG

Idő: 16:45 (13:45 UTC)

Előrejelzés

A jelentés 2 órával és 45 perccel ezelõtt készült, 11:00 UTC
Az előrejelzés 23-én 12 óra UTC és 24-én 18 óra UTC között érvényes
Délnyugati szél 10 kt
Látótávolság: 7000 m
Kevés felhő 4000 lábon
23-én 14 óra UTC és 23-én 16 óra UTC között fokozatosan kialakuló
Észak-északnyugati szél 8 kt

TAF: OEJN 231100Z 2312/2418 23010KT 7000 FEW040 BECMG 2314/2316 34008KT

Meteorológiai megfigyelések és előrejelzések több, mint 4000 repülőtéren (METAR és TAF jelentéseket).

A térképen piros és sárga pontok jelzik az elérhető meteorológiai állomásokat.

Mozgassa az egeret a pont fölött, hogy megjelenjen az állomás neve.

Azután kattintson az időjárási megfigyelések és előrejelzések megtekintéséhez.

A térkép megváltoztatása: kattintson a fekete keresztel jelölt zöld gombra ráközelítéshez, a vonallal jelölt zöld gombra távolításhoz, vagy a zöld nyilakra a szomszédos térképek eléréséhez.


METAR-TAF: